Time;durP1;ratioP1;P1;durP2;ratioP2;P2;SDS_P1;SDS_P2;PMS_P1;PMS_P2;Temp;Humidity;BMP_temperature;BMP_pressure;BME280_temperature;BME280_humidity;BME280_pressure;Samples;Min_cycle;Max_cycle;Signal;HPM_P1;HPM_P2
2023/03/08 00:03:14;;;;;;;8.03;4.90;;;;;5.00;94801.00;;;;8352201;28;20274;-74
2023/03/08 00:07:20;;;;;;;9.87;5.10;;;;;5.00;94801.00;;;;8350556;28;20201;-74
2023/03/08 00:11:25;;;;;;;11.53;5.37;;;;;5.00;94822.00;;;;8340432;28;20608;-73
2023/03/08 00:15:32;;;;;;;12.50;5.80;;;;;5.00;94820.00;;;;8348383;28;20632;-75
2023/03/08 00:19:35;;;;;;;7.43;4.27;;;;;5.00;94822.00;;;;8347442;28;20199;-75
2023/03/08 00:23:43;;;;;;;8.77;4.80;;;;;5.00;94822.00;;;;8351481;28;20213;-75
2023/03/08 00:27:47;;;;;;;9.97;5.20;;;;;5.00;94823.00;;;;8349941;28;20250;-75
2023/03/08 00:31:51;;;;;;;7.77;4.70;;;;;4.90;94833.00;;;;8346234;28;20671;-75
2023/03/08 00:36:00;;;;;;;11.30;5.57;;;;;4.80;94828.00;;;;8342820;28;20206;-75
2023/03/08 00:40:07;;;;;;;8.93;4.70;;;;;4.80;94826.00;;;;8340315;28;20249;-75
2023/03/08 00:44:10;;;;;;;9.17;4.77;;;;;4.90;94830.00;;;;8346449;28;20206;-74
2023/03/08 00:48:14;;;;;;;9.80;5.43;;;;;5.00;94824.00;;;;8344453;28;20807;-74
2023/03/08 00:52:17;;;;;;;11.13;4.63;;;;;5.00;94824.00;;;;8325070;28;20918;-74
2023/03/08 00:56:20;;;;;;;10.37;5.67;;;;;5.00;94826.00;;;;8347421;28;20196;-75
2023/03/08 01:00:24;;;;;;;12.33;5.40;;;;;5.00;94825.00;;;;8337184;28;20808;-75
2023/03/08 01:04:31;;;;;;;14.17;5.67;;;;;4.90;94822.00;;;;8347426;28;20232;-75
2023/03/08 01:08:38;;;;;;;11.10;5.43;;;;;4.90;94826.00;;;;8339116;28;20231;-74
2023/03/08 01:12:41;;;;;;;9.10;4.63;;;;;4.80;94823.00;;;;8334476;28;20224;-74
2023/03/08 01:16:46;;;;;;;11.47;4.90;;;;;4.80;94821.00;;;;8338997;28;20731;-74
2023/03/08 01:20:57;;;;;;;9.07;5.00;;;;;4.80;94824.00;;;;8347317;28;20213;-74
2023/03/08 01:25:02;;;;;;;9.13;5.00;;;;;4.80;94820.00;;;;8323491;28;20641;-73
2023/03/08 01:29:05;;;;;;;10.97;5.60;;;;;4.70;94820.00;;;;8342580;28;20648;-73
2023/03/08 01:33:12;;;;;;;9.77;4.83;;;;;4.60;94813.00;;;;8340514;28;20673;-74
2023/03/08 01:37:19;;;;;;;11.03;5.37;;;;;4.50;94817.00;;;;8343497;28;20208;-74
2023/03/08 01:41:24;;;;;;;8.63;4.73;;;;;4.50;94815.00;;;;8341323;28;20243;-74
2023/03/08 01:46:06;;;;;;;8.73;4.37;;;;;4.40;94815.00;;;;8341886;28;20218;-73
2023/03/08 01:50:11;;;;;;;9.33;4.87;;;;;4.40;94807.00;;;;8323075;28;20201;-74
2023/03/08 01:54:21;;;;;;;9.53;4.87;;;;;4.50;94817.00;;;;8349296;28;20233;-75
2023/03/08 01:58:28;;;;;;;6.53;3.70;;;;;4.60;94809.00;;;;8348767;28;20232;-75
2023/03/08 02:02:40;;;;;;;8.30;4.97;;;;;4.60;94812.00;;;;8340556;28;20279;-75
2023/03/08 02:06:46;;;;;;;13.13;4.67;;;;;4.70;94806.00;;;;8343695;28;20207;-74
2023/03/08 02:10:54;;;;;;;8.23;4.53;;;;;4.70;94796.00;;;;8347868;28;20258;-75
2023/03/08 02:15:01;;;;;;;7.30;4.93;;;;;4.60;94792.00;;;;8346002;28;20224;-74
2023/03/08 02:19:09;;;;;;;8.70;5.00;;;;;4.50;94798.00;;;;8349468;28;20323;-74
2023/03/08 02:23:16;;;;;;;7.47;4.37;;;;;4.30;94795.00;;;;8337543;28;20261;-74
2023/03/08 02:27:25;;;;;;;10.97;5.13;;;;;4.10;94797.00;;;;8342710;28;20762;-73
2023/03/08 02:31:28;;;;;;;9.67;4.70;;;;;4.00;94796.00;;;;8343661;28;20480;-74
2023/03/08 02:35:34;;;;;;;9.23;4.63;;;;;3.90;94788.00;;;;8338273;28;20309;-74
2023/03/08 02:39:41;;;;;;;10.03;5.30;;;;;3.80;94783.00;;;;8344686;28;20291;-74
2023/03/08 02:43:46;;;;;;;7.67;4.60;;;;;3.80;94786.00;;;;8338184;28;20646;-74
2023/03/08 02:47:49;;;;;;;9.73;4.70;;;;;3.70;94783.00;;;;8338573;28;20265;-74
2023/03/08 02:51:55;;;;;;;11.23;5.33;;;;;3.60;94786.00;;;;8331331;28;20199;-75
2023/03/08 02:56:05;;;;;;;9.87;5.07;;;;;3.50;94789.00;;;;8346855;28;20650;-75
2023/03/08 03:00:10;;;;;;;10.40;5.03;;;;;3.40;94784.00;;;;8346743;28;20739;-75
2023/03/08 03:04:13;;;;;;;9.07;4.73;;;;;3.30;94785.00;;;;8396424;22;20371;-75
2023/03/08 03:08:20;;;;;;;8.60;4.73;;;;;3.20;94779.00;;;;8442676;28;20205;-74
2023/03/08 03:12:25;;;;;;;9.43;5.33;;;;;3.20;94787.00;;;;8443057;28;20199;-75
2023/03/08 03:16:30;;;;;;;12.13;6.13;;;;;3.20;94798.00;;;;8436733;28;20248;-75
2023/03/08 03:20:33;;;;;;;12.60;5.80;;;;;3.10;94802.00;;;;8435523;28;20200;-75
2023/03/08 03:24:36;;;;;;;9.07;5.10;;;;;3.00;94800.00;;;;8437812;28;20202;-75
2023/03/08 03:28:41;;;;;;;11.20;5.20;;;;;2.90;94786.00;;;;8426533;28;20253;-74
2023/03/08 03:32:44;;;;;;;10.17;4.70;;;;;2.70;94808.00;;;;8441348;28;20639;-74
2023/03/08 03:36:50;;;;;;;8.47;5.10;;;;;2.70;94802.00;;;;8435859;28;20534;-73
2023/03/08 03:41:03;;;;;;;8.67;5.17;;;;;2.50;94807.00;;;;8439305;28;20199;-74
2023/03/08 03:45:09;;;;;;;9.93;5.30;;;;;2.50;94800.00;;;;8433152;28;20254;-74
2023/03/08 03:49:13;;;;;;;12.90;5.23;;;;;2.40;94804.00;;;;8424618;28;20644;-76
2023/03/08 03:53:16;;;;;;;8.73;5.00;;;;;2.20;94799.00;;;;8439848;28;20733;-76
2023/03/08 03:57:22;;;;;;;12.33;5.43;;;;;2.10;94798.00;;;;8444491;28;20223;-73
2023/03/08 04:01:29;;;;;;;12.00;5.93;;;;;2.00;94800.00;;;;8437038;28;20214;-73
2023/03/08 04:05:32;;;;;;;9.90;4.83;;;;;1.90;94798.00;;;;8405813;28;20202;-72
2023/03/08 04:09:40;;;;;;;11.73;6.03;;;;;1.90;94791.00;;;;8413495;28;20211;-73
2023/03/08 04:13:44;;;;;;;12.30;6.20;;;;;1.90;94791.00;;;;8405462;28;20227;-75
2023/03/08 04:17:51;;;;;;;11.33;5.80;;;;;1.90;94785.00;;;;8413176;28;20207;-76
2023/03/08 04:21:54;;;;;;;10.43;5.93;;;;;1.90;94770.00;;;;8407485;28;20210;-76
2023/03/08 04:26:06;;;;;;;10.53;5.50;;;;;1.90;94770.00;;;;8411708;28;20270;-76
2023/03/08 04:30:11;;;;;;;12.97;6.07;;;;;1.90;94773.00;;;;8411587;28;20660;-76
2023/03/08 04:34:16;;;;;;;11.63;6.00;;;;;2.00;94774.00;;;;8410290;28;21341;-74
2023/03/08 04:38:19;;;;;;;13.40;6.00;;;;;2.10;94771.00;;;;8416943;28;20234;-76
2023/03/08 04:42:22;;;;;;;17.00;6.00;;;;;2.20;94765.00;;;;8417938;28;20234;-77
2023/03/08 04:46:28;;;;;;;13.80;6.87;;;;;2.30;94769.00;;;;8407492;28;20191;-77
2023/03/08 04:50:33;;;;;;;12.47;6.37;;;;;2.40;94768.00;;;;8410994;28;20408;-76
2023/03/08 04:54:36;;;;;;;15.10;6.80;;;;;2.50;94770.00;;;;8393367;28;20235;-77
2023/03/08 04:58:40;;;;;;;14.57;6.07;;;;;2.60;94767.00;;;;8406055;28;20582;-76
2023/03/08 05:02:48;;;;;;;13.20;6.47;;;;;2.70;94761.00;;;;8404969;28;20232;-74
2023/03/08 05:06:54;;;;;;;17.60;6.37;;;;;2.70;94748.00;;;;8415358;28;20257;-75
2023/03/08 05:10:59;;;;;;;12.83;6.37;;;;;2.80;94743.00;;;;8399631;28;20567;-75
2023/03/08 05:15:09;;;;;;;16.20;6.47;;;;;2.80;94739.00;;;;8411879;28;20230;-74
2023/03/08 05:19:15;;;;;;;16.73;6.67;;;;;2.90;94727.00;;;;8410526;28;20603;-74
2023/03/08 05:23:19;;;;;;;11.57;6.77;;;;;2.90;94727.00;;;;8408136;28;20530;-75
2023/03/08 05:27:25;;;;;;;13.87;7.10;;;;;2.90;94725.00;;;;8407966;28;20226;-74
2023/03/08 05:31:31;;;;;;;17.80;7.07;;;;;2.90;94721.00;;;;8390860;28;20203;-74
2023/03/08 05:35:34;;;;;;;14.77;7.17;;;;;3.00;94724.00;;;;8406128;28;20320;-74
2023/03/08 05:39:40;;;;;;;13.73;7.37;;;;;3.00;94711.00;;;;8400613;28;20199;-74
2023/03/08 05:43:43;;;;;;;19.03;7.30;;;;;3.00;94707.00;;;;8399302;28;20286;-74
2023/03/08 05:47:46;;;;;;;16.50;6.30;;;;;3.00;94697.00;;;;8407133;28;20203;-80
2023/03/08 05:51:52;;;;;;;18.57;8.00;;;;;3.00;94684.00;;;;8407085;28;20241;-79
2023/03/08 05:56:10;;;;;;;14.87;7.10;;;;;3.00;94694.00;;;;8407059;28;20312;-81
2023/03/08 06:00:22;;;;;;;16.83;7.33;;;;;3.00;94697.00;;;;8391675;28;20196;-79
2023/03/08 06:04:30;;;;;;;14.17;7.23;;;;;3.00;94699.00;;;;8404368;28;20565;-80
2023/03/08 06:08:36;;;;;;;16.80;7.63;;;;;3.00;94689.00;;;;8401821;28;20610;-78
2023/03/08 06:12:40;;;;;;;14.93;7.60;;;;;3.00;94694.00;;;;8405200;28;20657;-78
2023/03/08 06:16:47;;;;;;;16.30;7.50;;;;;3.00;94713.00;;;;8407550;28;20236;-78
2023/03/08 06:21:01;;;;;;;14.73;7.60;;;;;3.00;94714.00;;;;8407422;28;20328;-79
2023/03/08 06:25:10;;;;;;;15.03;7.30;;;;;3.00;94732.00;;;;8405886;28;20699;-78
2023/03/08 06:29:15;;;;;;;15.13;6.93;;;;;3.10;94728.00;;;;8406016;28;20650;-77
2023/03/08 06:33:22;;;;;;;12.30;6.63;;;;;3.20;94737.00;;;;8399319;28;20240;-77
2023/03/08 06:37:26;;;;;;;13.03;6.87;;;;;3.30;94730.00;;;;8403865;28;20227;-82
2023/03/08 06:41:31;;;;;;;12.37;6.77;;;;;3.40;94742.00;;;;8405837;28;20200;-79
2023/03/08 06:45:37;;;;;;;14.73;7.30;;;;;3.50;94740.00;;;;8398868;28;20200;-79
2023/03/08 06:49:40;;;;;;;18.10;7.60;;;;;3.60;94738.00;;;;8405454;28;20624;-78
2023/03/08 06:53:44;;;;;;;27.00;10.67;;;;;3.80;94740.00;;;;8397359;28;20202;-79
2023/03/08 06:57:47;;;;;;;19.10;7.97;;;;;3.90;94729.00;;;;8387624;28;20231;-78
2023/03/08 07:01:52;;;;;;;19.17;8.43;;;;;4.00;94728.00;;;;8403244;28;20227;-78
2023/03/08 07:06:02;;;;;;;17.37;7.70;;;;;4.10;94727.00;;;;8379224;28;20656;-77
2023/03/08 07:10:09;;;;;;;18.60;8.30;;;;;4.20;94732.00;;;;8404262;28;20287;-76
2023/03/08 07:14:12;;;;;;;15.33;7.93;;;;;4.20;94725.00;;;;8396441;28;20859;-76
2023/03/08 07:18:17;;;;;;;18.97;8.63;;;;;4.30;94741.00;;;;8397358;28;20228;-76
2023/03/08 07:22:20;;;;;;;18.43;9.43;;;;;4.40;94722.00;;;;8403208;28;20865;-77
2023/03/08 07:26:23;;;;;;;94.00;54.30;;;;;4.60;94714.00;;;;8400053;28;20198;-78
2023/03/08 07:30:27;;;;;;;26.23;13.57;;;;;4.80;94717.00;;;;8418538;28;20585;-77
2023/03/08 07:34:32;;;;;;;37.73;21.90;;;;;5.00;94723.00;;;;8413541;28;20521;-77
2023/03/08 07:38:35;;;;;;;32.63;16.43;;;;;5.10;94718.00;;;;8431195;28;20540;-78
2023/03/08 07:42:38;;;;;;;17.17;9.37;;;;;5.20;94715.00;;;;8432308;28;20251;-75
2023/03/08 07:46:43;;;;;;;20.03;10.63;;;;;5.20;94703.00;;;;8431587;28;20198;-74
2023/03/08 07:50:48;;;;;;;20.57;10.50;;;;;5.40;94692.00;;;;8431485;28;20289;-75
2023/03/08 07:54:56;;;;;;;21.97;11.77;;;;;5.50;94693.00;;;;8430211;28;20273;-75
2023/03/08 07:59:02;;;;;;;39.13;28.30;;;;;5.60;94693.00;;;;8430663;28;20195;-74
2023/03/08 08:03:07;;;;;;;38.37;15.57;;;;;5.70;94685.00;;;;8428929;28;20277;-74
2023/03/08 08:07:14;;;;;;;27.80;17.40;;;;;5.90;94704.00;;;;8433121;28;20198;-73
2023/03/08 08:11:19;;;;;;;30.70;13.43;;;;;6.10;94701.00;;;;8435086;28;20199;-74
2023/03/08 08:15:26;;;;;;;74.20;34.23;;;;;6.30;94696.00;;;;8434818;28;20233;-75
2023/03/08 08:19:30;;;;;;;50.33;23.93;;;;;6.50;94679.00;;;;8434864;28;20191;-76
2023/03/08 08:23:39;;;;;;;54.30;23.03;;;;;6.60;94683.00;;;;8433624;28;20190;-75
2023/03/08 08:27:44;;;;;;;45.93;19.93;;;;;6.80;94690.00;;;;8434629;28;20187;-75
2023/03/08 08:31:55;;;;;;;48.77;19.77;;;;;6.80;94679.00;;;;8416925;28;20632;-76
2023/03/08 08:35:58;;;;;;;62.20;30.70;;;;;6.70;94674.00;;;;8434328;28;20207;-75
2023/03/08 08:40:08;;;;;;;20.73;11.60;;;;;6.60;94690.00;;;;8433777;28;20578;-75
2023/03/08 08:44:15;;;;;;;24.23;10.50;;;;;6.30;94677.00;;;;8433593;28;20183;-75
2023/03/08 08:48:18;;;;;;;20.33;11.50;;;;;6.10;94663.00;;;;8432784;28;20191;-74
2023/03/08 08:52:26;;;;;;;24.07;10.90;;;;;6.10;94655.00;;;;8434645;28;20218;-74
2023/03/08 08:56:33;;;;;;;22.43;10.83;;;;;6.00;94636.00;;;;8432972;28;20303;-72
2023/03/08 09:00:36;;;;;;;20.27;9.60;;;;;5.80;94630.00;;;;8433022;28;20195;-73
2023/03/08 09:04:39;;;;;;;26.93;12.27;;;;;5.80;94623.00;;;;8367361;28;1279649;-72
2023/03/08 09:08:43;;;;;;;25.13;11.43;;;;;5.70;94618.00;;;;8435049;28;20290;-76
2023/03/08 09:12:47;;;;;;;26.93;11.50;;;;;5.70;94595.00;;;;8434501;28;20206;-76
2023/03/08 09:16:54;;;;;;;24.80;11.07;;;;;5.70;94605.00;;;;8415524;28;20225;-75
2023/03/08 09:21:03;;;;;;;26.47;11.23;;;;;5.60;94610.00;;;;8435353;28;20477;-76
2023/03/08 09:25:10;;;;;;;30.87;12.20;;;;;5.60;94605.00;;;;8415038;28;20202;-76
2023/03/08 09:29:18;;;;;;;23.97;11.00;;;;;5.40;94596.00;;;;8433368;28;20195;-76
2023/03/08 09:33:22;;;;;;;31.70;13.33;;;;;5.30;94581.00;;;;8434719;28;20217;-73
2023/03/08 09:37:36;;;;;;;29.23;13.10;;;;;5.10;94577.00;;;;8434022;28;20252;-75
2023/03/08 09:41:49;;;;;;;53.90;20.30;;;;;5.10;94546.00;;;;8433909;28;20204;-71
2023/03/08 09:45:55;;;;;;;32.60;13.33;;;;;5.00;94528.00;;;;8432872;28;20191;-71
2023/03/08 09:50:05;;;;;;;28.20;13.60;;;;;4.80;94523.00;;;;8427820;28;20189;-71
2023/03/08 09:54:14;;;;;;;33.33;14.30;;;;;4.80;94519.00;;;;8433506;28;20195;-72
2023/03/08 09:58:33;;;;;;;35.10;15.37;;;;;4.70;94520.00;;;;8431755;28;20272;-72
2023/03/08 10:02:50;;;;;;;48.50;25.13;;;;;4.60;94497.00;;;;8433432;28;20222;-74
2023/03/08 10:07:06;;;;;;;46.70;19.27;;;;;4.60;94498.00;;;;8433776;28;20560;-72
2023/03/08 10:11:21;;;;;;;36.07;16.27;;;;;4.40;94488.00;;;;8433189;28;20198;-72
2023/03/08 10:15:26;;;;;;;36.03;15.40;;;;;4.40;94469.00;;;;8432805;28;20509;-72
2023/03/08 10:19:37;;;;;;;31.23;14.10;;;;;4.30;94445.00;;;;8433064;28;20655;-73
2023/03/08 10:23:41;;;;;;;34.23;16.70;;;;;4.10;94433.00;;;;8431576;28;20205;-74
2023/03/08 10:27:50;;;;;;;36.47;20.10;;;;;4.10;94434.00;;;;8431877;28;20198;-75
2023/03/08 10:31:53;;;;;;;36.57;14.03;;;;;4.10;94441.00;;;;8432530;28;20198;-75
2023/03/08 10:36:02;;;;;;;31.00;13.83;;;;;4.00;94445.00;;;;8432765;28;20729;-75
2023/03/08 10:40:09;;;;;;;40.60;15.90;;;;;3.80;94434.00;;;;8432500;28;20194;-75
2023/03/08 10:44:29;;;;;;;32.60;13.10;;;;;3.80;94425.00;;;;8432524;28;20203;-75
2023/03/08 10:48:35;;;;;;;32.50;14.63;;;;;3.70;94415.00;;;;8431498;28;20228;-76
2023/03/08 10:52:44;;;;;;;34.50;14.33;;;;;3.50;94428.00;;;;8432392;28;20536;-76
2023/03/08 10:56:54;;;;;;;30.43;13.67;;;;;3.30;94428.00;;;;8413660;28;20223;-75
2023/03/08 11:01:03;;;;;;;28.80;12.47;;;;;3.20;94418.00;;;;8428429;28;20202;-77
2023/03/08 11:05:19;;;;;;;26.43;12.93;;;;;3.20;94423.00;;;;8431265;28;20310;-76
2023/03/08 11:09:29;;;;;;;23.77;11.33;;;;;3.20;94417.00;;;;8431461;28;20271;-73
2023/03/08 11:13:34;;;;;;;24.57;12.17;;;;;3.30;94399.00;;;;8431673;28;20201;-74
2023/03/08 11:17:43;;;;;;;25.50;11.17;;;;;3.30;94399.00;;;;8430820;28;20652;-74
2023/03/08 11:21:55;;;;;;;23.47;11.33;;;;;3.30;94395.00;;;;8431331;28;20193;-73
2023/03/08 11:26:08;;;;;;;24.07;12.10;;;;;3.40;94391.00;;;;8430633;28;20198;-73
2023/03/08 11:30:27;;;;;;;27.30;12.33;;;;;3.50;94397.00;;;;8429042;28;20190;-73
2023/03/08 11:34:51;;;;;;;16.10;8.60;;;;;3.50;94386.00;;;;8430438;28;20662;-73
2023/03/08 11:38:59;;;;;;;26.67;11.50;;;;;3.60;94385.00;;;;8430469;28;20314;-72
2023/03/08 11:43:16;;;;;;;21.97;11.30;;;;;3.70;94372.00;;;;8437265;28;20241;-72
2023/03/08 11:48:04;;;;;;;27.77;12.07;;;;;3.80;94364.00;;;;8437040;28;20198;-72
2023/03/08 11:52:17;;;;;;;28.20;12.67;;;;;3.90;94368.00;;;;8437768;28;20190;-72
2023/03/08 11:56:40;;;;;;;28.17;12.63;;;;;3.90;94371.00;;;;8432749;28;20273;-72
2023/03/08 12:00:48;;;;;;;25.07;11.90;;;;;4.00;94357.00;;;;8437366;28;20184;-71
2023/03/08 12:05:00;;;;;;;27.77;13.57;;;;;4.10;94350.00;;;;8437345;28;20271;-71
2023/03/08 12:09:08;;;;;;;33.83;15.27;;;;;4.30;94344.00;;;;8437550;28;20191;-72
2023/03/08 12:13:17;;;;;;;28.50;13.97;;;;;4.30;94329.00;;;;8437126;28;20708;-72
2023/03/08 12:17:32;;;;;;;25.43;13.60;;;;;4.40;94348.00;;;;8436718;28;20630;-72
2023/03/08 12:21:41;;;;;;;30.70;14.17;;;;;4.50;94339.00;;;;8437117;28;20517;-72
2023/03/08 12:25:48;;;;;;;35.17;14.87;;;;;4.60;94328.00;;;;8437577;28;20193;-72
2023/03/08 12:29:56;;;;;;;133.97;69.83;;;;;4.80;94305.00;;;;8435752;28;20202;-72
2023/03/08 12:34:12;;;;;;;39.53;19.37;;;;;4.90;94300.00;;;;8435531;28;20532;-72
2023/03/08 12:38:33;;;;;;;76.47;43.60;;;;;5.00;94308.00;;;;8436254;28;20223;-72
2023/03/08 12:42:41;;;;;;;44.87;21.93;;;;;5.10;94306.00;;;;8417223;28;20200;-71
2023/03/08 12:46:47;;;;;;;37.73;18.63;;;;;5.20;94296.00;;;;8435661;28;20202;-71
2023/03/08 12:51:17;;;;;;;98.60;75.27;;;;;5.30;94305.00;;;;8432106;28;20243;-74
2023/03/08 12:55:30;;;;;;;43.70;24.77;;;;;5.40;94279.00;;;;8436143;28;20234;-74
2023/03/08 12:59:37;;;;;;;733.43;456.67;;;;;5.60;94287.00;;;;8434558;28;20222;-75
2023/03/08 13:03:42;;;;;;;46.53;22.70;;;;;5.70;94270.00;;;;8435959;28;20221;-73
2023/03/08 13:08:00;;;;;;;37.73;18.80;;;;;5.90;94279.00;;;;8434390;28;20196;-74
2023/03/08 13:12:20;;;;;;;41.37;24.70;;;;;5.90;94277.00;;;;8435205;28;20198;-75
2023/03/08 13:16:35;;;;;;;33.40;15.93;;;;;6.00;94263.00;;;;8435409;28;20624;-75
2023/03/08 13:21:04;;;;;;;85.47;42.50;;;;;6.10;94265.00;;;;8435063;28;20199;-74
2023/03/08 13:25:27;;;;;;;31.90;14.97;;;;;6.20;94271.00;;;;8434289;28;20617;-74
2023/03/08 13:29:34;;;;;;;40.67;16.07;;;;;6.20;94272.00;;;;8435095;28;20199;-72
2023/03/08 13:33:40;;;;;;;33.57;15.43;;;;;6.30;94270.00;;;;8435555;28;20198;-72
2023/03/08 13:37:52;;;;;;;25.80;12.90;;;;;6.40;94271.00;;;;8434324;28;20728;-73
2023/03/08 13:42:07;;;;;;;32.37;13.50;;;;;6.40;94269.00;;;;8434932;28;20222;-73
2023/03/08 13:46:15;;;;;;;26.33;12.17;;;;;6.50;94267.00;;;;8434065;28;20281;-73
2023/03/08 13:50:26;;;;;;;30.00;12.77;;;;;6.60;94262.00;;;;8433836;28;20200;-73
2023/03/08 13:54:31;;;;;;;30.73;12.77;;;;;6.70;94265.00;;;;8433869;28;20248;-73
2023/03/08 13:58:39;;;;;;;27.50;12.73;;;;;6.80;94266.00;;;;8432974;28;20211;-73
2023/03/08 14:02:46;;;;;;;29.83;12.87;;;;;6.80;94253.00;;;;8431050;28;20313;-73
2023/03/08 14:06:52;;;;;;;32.60;13.90;;;;;7.00;94243.00;;;;8433018;28;20220;-72
2023/03/08 14:10:59;;;;;;;30.30;13.07;;;;;7.10;94249.00;;;;8430862;28;20210;-71
2023/03/08 14:15:06;;;;;;;36.70;14.43;;;;;7.20;94246.00;;;;8433508;28;20203;-72
2023/03/08 14:19:22;;;;;;;30.40;13.10;;;;;7.30;94248.00;;;;8433318;28;20275;-72
2023/03/08 14:23:26;;;;;;;29.97;13.63;;;;;7.40;94233.00;;;;8433507;28;20206;-72
2023/03/08 14:27:38;;;;;;;34.90;13.93;;;;;7.50;94223.00;;;;8433571;28;20279;-73
2023/03/08 14:31:55;;;;;;;28.07;13.40;;;;;7.80;94225.00;;;;8429395;28;20605;-73
2023/03/08 14:36:00;;;;;;;28.47;13.43;;;;;8.00;94224.00;;;;8432536;28;20188;-73
2023/03/08 14:40:22;;;;;;;27.53;12.73;;;;;8.00;94219.00;;;;8431026;28;20230;-73
2023/03/08 14:44:29;;;;;;;26.23;12.77;;;;;7.90;94214.00;;;;8431551;28;20640;-73
2023/03/08 14:48:45;;;;;;;28.00;13.20;;;;;7.90;94206.00;;;;8431778;28;20203;-73
2023/03/08 14:52:50;;;;;;;34.10;12.77;;;;;8.10;94200.00;;;;8433433;28;20282;-72
2023/03/08 14:56:55;;;;;;;27.07;11.63;;;;;8.40;94202.00;;;;8430408;28;20191;-71
2023/03/08 15:01:01;;;;;;;26.63;11.90;;;;;8.50;94190.00;;;;8431741;28;20208;-71
2023/03/08 15:05:12;;;;;;;18.33;9.60;;;;;8.60;94173.00;;;;8431138;28;20227;-72
2023/03/08 15:09:19;;;;;;;15.43;8.73;;;;;8.90;94170.00;;;;8431663;28;20203;-72
2023/03/08 15:13:24;;;;;;;16.73;8.87;;;;;9.00;94158.00;;;;8431126;28;20195;-72
2023/03/08 15:17:29;;;;;;;20.17;9.80;;;;;9.00;94148.00;;;;8431105;28;20223;-72
2023/03/08 15:21:37;;;;;;;18.50;8.80;;;;;9.20;94147.00;;;;8430658;28;20187;-72
2023/03/08 15:25:40;;;;;;;14.33;7.93;;;;;9.30;94141.00;;;;8431044;28;20191;-72
2023/03/08 15:29:43;;;;;;;16.40;9.07;;;;;9.40;94146.00;;;;8430733;28;20191;-73
2023/03/08 15:33:46;;;;;;;12.10;6.57;;;;;9.50;94137.00;;;;8413091;28;20221;-73
2023/03/08 15:37:52;;;;;;;14.70;7.73;;;;;9.50;94143.00;;;;8430876;28;20223;-73
2023/03/08 15:41:56;;;;;;;17.25;7.68;;;;;9.50;94153.00;;;;8428477;28;20187;-72
2023/03/08 15:45:59;;;;;;;20.63;8.50;;;;;9.50;94143.00;;;;8430623;28;20191;-74
2023/03/08 15:50:02;;;;;;;16.55;7.55;;;;;9.50;94147.00;;;;8412760;28;20187;-75
2023/03/08 15:54:07;;;;;;;16.20;8.20;;;;;9.50;94143.00;;;;8430564;28;20191;-76
2023/03/08 15:58:10;;;;;;;12.07;7.23;;;;;9.60;94136.00;;;;8429211;28;20318;-75
2023/03/08 16:02:18;;;;;;;12.73;7.10;;;;;9.60;94134.00;;;;8430878;28;20218;-76
2023/03/08 16:06:22;;;;;;;13.50;6.73;;;;;9.60;94138.00;;;;8430569;28;20531;-75
2023/03/08 16:10:28;;;;;;;11.93;5.63;;;;;9.60;94147.00;;;;8430909;28;20204;-75
2023/03/08 16:14:32;;;;;;;9.73;6.00;;;;;9.40;94154.00;;;;8430056;28;20282;-75
2023/03/08 16:18:39;;;;;;;8.20;4.85;;;;;9.20;94171.00;;;;8430183;28;20219;-73
2023/03/08 16:22:45;;;;;;;9.63;4.73;;;;;9.20;94152.00;;;;8430700;28;20195;-72
2023/03/08 16:26:51;;;;;;;7.10;5.10;;;;;9.20;94161.00;;;;8432104;28;20195;-72
2023/03/08 16:30:57;;;;;;;10.13;4.77;;;;;9.20;94153.00;;;;8435268;28;20248;-73
2023/03/08 16:35:03;;;;;;;9.27;4.87;;;;;9.20;94137.00;;;;8431092;28;20282;-73
2023/03/08 16:39:09;;;;;;;5.27;4.03;;;;;9.20;94127.00;;;;8436050;28;20224;-72
2023/03/08 16:43:16;;;;;;;7.57;5.00;;;;;9.20;94122.00;;;;8437587;28;20183;-73
2023/03/08 16:47:19;;;;;;;8.27;5.30;;;;;9.20;94122.00;;;;8436942;28;20636;-71
2023/03/08 16:51:25;;;;;;;8.57;5.10;;;;;9.20;94121.00;;;;8435215;28;20221;-72
2023/03/08 16:55:28;;;;;;;28.63;13.70;;;;;9.20;94127.00;;;;8436604;28;20195;-72
2023/03/08 16:59:33;;;;;;;13.53;7.63;;;;;9.20;94105.00;;;;8435445;28;20219;-72
2023/03/08 17:03:36;;;;;;;10.80;6.63;;;;;9.20;94110.00;;;;8436023;28;20219;-72
2023/03/08 17:07:46;;;;;;;18.67;8.57;;;;;9.20;94119.00;;;;8435041;28;20203;-72
2023/03/08 17:11:51;;;;;;;13.37;7.57;;;;;9.20;94119.00;;;;8433827;28;20249;-73
2023/03/08 17:15:55;;;;;;;13.27;8.27;;;;;9.20;94118.00;;;;8435158;28;20265;-72
2023/03/08 17:19:59;;;;;;;16.57;9.07;;;;;9.10;94112.00;;;;8435271;28;20552;-73
2023/03/08 17:24:11;;;;;;;18.00;9.30;;;;;9.20;94098.00;;;;8435067;28;20195;-84
2023/03/08 17:28:15;;;;;;;16.03;8.37;;;;;9.10;94106.00;;;;8431241;28;20195;-78
2023/03/08 17:32:25;;;;;;;11.17;6.47;;;;;9.10;94108.00;;;;8434142;28;20195;-78
2023/03/08 17:36:28;;;;;;;10.07;6.40;;;;;9.10;94112.00;;;;8433666;28;20195;-79
2023/03/08 17:40:31;;;;;;;5.43;3.83;;;;;9.10;94130.00;;;;8429439;28;20560;-78
2023/03/08 17:44:35;;;;;;;5.33;4.00;;;;;9.20;94125.00;;;;8432901;28;20203;-85
2023/03/08 17:48:43;;;;;;;4.40;3.93;;;;;9.20;94134.00;;;;8432531;28;20200;-75
2023/03/08 17:52:46;;;;;;;3.73;3.23;;;;;9.30;94128.00;;;;8433878;28;20247;-74
2023/03/08 17:56:51;;;;;;;8.52;3.53;;;;;9.30;94120.00;;;;8432585;28;20191;-81
2023/03/08 18:00:57;;;;;;;4.77;3.50;;;;;9.40;94132.00;;;;8431632;28;20254;-81
2023/03/08 18:05:02;;;;;;;6.57;4.43;;;;;9.40;94124.00;;;;8433778;28;20223;-85
2023/03/08 18:09:07;;;;;;;3.77;3.40;;;;;9.40;94127.00;;;;8433244;28;20205;-84
2023/03/08 18:13:11;;;;;;;6.38;3.40;;;;;9.40;94124.00;;;;8432479;28;20202;-81
2023/03/08 18:17:14;;;;;;;3.00;2.70;;;;;9.40;94117.00;;;;8414395;28;20556;-80
2023/03/08 18:21:21;;;;;;;4.40;2.87;;;;;9.40;94116.00;;;;8433034;28;20219;-79
2023/03/08 18:25:27;;;;;;;6.23;2.83;;;;;9.40;94131.00;;;;8433030;28;20282;-80
2023/03/08 18:29:30;;;;;;;4.80;3.00;;;;;9.40;94115.00;;;;8432631;28;20191;-81
2023/03/08 18:33:35;;;;;;;6.83;3.33;;;;;9.40;94118.00;;;;8433060;28;20195;-81
2023/03/08 18:37:44;;;;;;;4.10;3.17;;;;;9.40;94115.00;;;;8432289;28;20180;-79
2023/03/08 18:41:49;;;;;;;5.17;3.00;;;;;9.40;94127.00;;;;8432145;28;20215;-80
2023/03/08 18:45:56;;;;;;;4.90;2.70;;;;;9.50;94131.00;;;;8431402;28;20191;-79
2023/03/08 18:50:01;;;;;;;2.30;2.20;;;;;9.50;94134.00;;;;8430864;28;20195;-78
2023/03/08 18:54:09;;;;;;;2.30;2.07;;;;;9.60;94123.00;;;;8414154;28;20202;-80
2023/03/08 18:58:18;;;;;;;2.40;2.17;;;;;9.60;94134.00;;;;8413450;28;20246;-82
2023/03/08 19:02:23;;;;;;;2.85;2.08;;;;;9.70;94126.00;;;;8430587;28;20246;-86
2023/03/08 19:06:33;;;;;;;5.22;2.08;;;;;9.80;94128.00;;;;8432269;28;20226;-81
2023/03/08 19:10:41;;;;;;;2.73;2.30;;;;;9.80;94105.00;;;;8430666;28;20203;-81
2023/03/08 19:14:48;;;;;;;5.70;2.57;;;;;9.80;94108.00;;;;8414572;28;20648;-83
2023/03/08 19:19:00;;;;;;;1.67;1.57;;;;;9.70;94118.00;;;;8413625;28;20218;-83
2023/03/08 19:23:12;;;;;;;2.28;2.10;;;;;9.80;94112.00;;;;8430170;28;20191;-83
2023/03/08 19:27:17;;;;;;;2.53;2.30;;;;;9.80;94102.00;;;;8431654;28;20272;-82
2023/03/08 19:31:22;;;;;;;5.18;2.30;;;;;9.80;94101.00;;;;8430443;28;20199;-82
2023/03/08 19:35:26;;;;;;;2.17;2.08;;;;;9.80;94103.00;;;;8431358;28;20191;-83
2023/03/08 19:39:47;;;;;;;2.00;1.90;;;;;9.80;94108.00;;;;8431706;28;20226;-82
2023/03/08 19:44:05;;;;;;;2.67;2.27;;;;;9.80;94105.00;;;;8430892;28;20214;-81
2023/03/08 19:48:16;;;;;;;2.20;1.80;;;;;9.80;94102.00;;;;8430968;28;20214;-84
2023/03/08 19:52:23;;;;;;;2.63;2.38;;;;;9.80;94105.00;;;;8413614;28;20196;-83
2023/03/08 19:56:33;;;;;;;3.70;2.70;;;;;9.90;94100.00;;;;8429704;28;20295;-80
2023/03/08 20:00:42;;;;;;;3.87;1.90;;;;;9.90;94097.00;;;;8430507;28;20264;-79
2023/03/08 20:04:46;;;;;;;2.40;2.20;;;;;9.90;94100.00;;;;8436593;28;20223;-79
2023/03/08 20:08:51;;;;;;;2.50;2.30;;;;;10.10;94108.00;;;;8436008;28;20237;-79
2023/03/08 20:12:55;;;;;;;2.73;2.53;;;;;10.10;94102.00;;;;8435633;28;20205;-78
2023/03/08 20:17:03;;;;;;;9.40;5.13;;;;;10.20;94082.00;;;;8436646;28;20282;-78
2023/03/08 20:21:09;;;;;;;16.97;7.20;;;;;10.10;94100.00;;;;8435409;28;20295;-78
2023/03/08 20:25:16;;;;;;;11.17;5.47;;;;;10.20;94094.00;;;;8436605;28;20241;-79
2023/03/08 20:29:28;;;;;;;49.80;20.27;;;;;10.20;94093.00;;;;8433963;28;20233;-77
2023/03/08 20:33:40;;;;;;;12.65;7.32;;;;;10.20;94079.00;;;;8436758;28;20200;-77
2023/03/08 20:37:44;;;;;;;10.63;6.10;;;;;10.20;94084.00;;;;8435064;28;20217;-77